EDHI

Hamburg-Finkenwerder Airport

Hamburg, Germany
METAR EDHI 232020Z AUTO 29023G34KT 9999 2300 // SCT017/// BKN051/// OVC096/// 13/10 Q1011
Observed Flight Rules
Oct-23 @ 20:20 UTC (17 minutes ago) Visual Flight Rules
Wind Visibility Clouds
290° at 23 knots
 Gusting to 34 knots
10,000+ meters
  • Scattered at 1,700' AGL
  • Broken at 5,100' AGL
  • Overcast at 9,600' AGL
Temperatures Readings
Current 13°C / 55°F
Dewpoint 10°C / 50°F
Humidity 82%
Altimeter 29.85" Hg
Pressure 1011 hPa
Elevation 13
METAR EDHI 232020Z AUTO 29023G34KT 9999 2300 // SCT017/// BKN051/// OVC096/// 13/10 Q1011
Observed Flight Rules
Oct-23 @ 20:20 UTC
(17 minutes ago)
VFR
Wind Visibility
290° at 23 knots
 Gusting to 34 knots
10,000+ meters
Clouds
  • Scattered at 1,700' AGL
  • Broken at 5,100' AGL
  • Overcast at 9,600' AGL
Temperature Dewpoint
13°C / 55°F 10°C / 50°F
Humidity Altimeter Pressure
82% 29.85" Hg 1011 hPa